• Join FlightAware (Why Join?)
  • Login
  • US Flag 
06:27PM EDT


 

Airport Tracker/Info


-or-


 

Live Flight TrackerFlight Track Log ✈ DAL6048 ✈ 17-Apr-2013 ✈ KMHT - KLGA

Flight Track Log - Related Links

Times and Time Zones

All times are in EDT time to prevent confusion due to time zone crossing. See the DAL6048 flight status page for this flight to view local times or setup timezone preferences in your user account.

Time Position Orientation Groundspeed Altitude Reporting Facility
EDT Latitude Longitude Course Direction KTS MPH feet Rate Location/Type
09:35AM 42.9500 -71.4333 231° Southwest 150 173 1,000  Level KA90
09:36AM 42.9833 -71.4667 324° Northwest 180 207 2,700 1,500 Climbing KA90
09:37AM 43.0333 -71.4833 346° North 204 235 3,800 1,560 Climbing KA90
09:38AM 42.7256 -71.6799 228° Southwest  Level Estimated
09:38AM 43.0864 -71.5189 334° Northwest 230 265 5,800  Level Boston Center
09:39AM 42.6564 -71.7610 236° Southwest  Level Estimated
09:39AM 43.1267 -71.5839 310° West 214 246 8,100  Level Boston Center
09:40AM 42.5872 -71.8418 231° Southwest  Level Estimated
09:40AM 43.1647 -71.6486 309° West 221 254 10,000  Level Boston Center
09:41AM 43.2108 -71.7250 310° West 245 282 11,600 1,500 Climbing Boston Center
09:42AM 43.2553 -71.8044 308° West 264 304 13,000 1,560 Climbing Boston Center
09:43AM 43.3036 -71.8953 306° West 280 322 14,700 1,440 Climbing Boston Center
09:44AM 43.3497 -71.9861 305° West 290 334 16,000 1,380 Climbing Boston Center
09:45AM 43.3897 -72.0858 299° West 296 341 17,600 960 Climbing Boston Center
09:46AM 43.3483 -72.1861 240° Southwest 281 323 18,000 180 Climbing Boston Center
09:47AM 43.2653 -72.2633 214° Southwest 314 361 18,000  Level Boston Center
09:48AM 43.1922 -72.3375 217° Southwest 326 375 18,000  Level Boston Center
09:49AM 43.1194 -72.4144 218° Southwest 332 382 18,000  Level Boston Center
09:50AM 43.0444 -72.4883 216° Southwest 337 388 18,000  Level Boston Center
09:51AM 42.9692 -72.5650 217° Southwest 337 388 18,000  Level Boston Center
09:52AM 42.8942 -72.6383 216° Southwest 337 388 18,000 -60 Level Boston Center
09:53AM 42.8169 -72.7147 216° Southwest 337 388 17,900 -360 Descending Boston Center
09:54AM 42.7394 -72.7878 215° Southwest 337 388 17,300 -840 Descending Boston Center
09:55AM 42.6642 -72.8636 217° Southwest 337 388 16,300 -720 Descending Boston Center
09:56AM 42.5869 -72.9364 215° Southwest 337 388 16,000 -180 Descending Boston Center
09:57AM 42.5094 -73.0119 216° Southwest 343 395 16,000  Level Boston Center
09:58AM 42.4422 -73.0817 217° Southwest 343 395 16,000  Level Boston Center
09:59AM 42.3606 -73.1594 215° Southwest 338 389 16,000 -360 Level Boston Center
10:00AM 42.2872 -73.2314 216° Southwest 338 389 15,300 -900 Descending Boston Center
10:01AM 42.2094 -73.3061 215° Southwest 338 389 14,200 -660 Descending Boston Center
10:02AM 42.1422 -73.3725 216° Southwest 338 389 14,000 -120 Descending Boston Center
10:03AM 42.0750 -73.4358 215° Southwest 324 373 14,000  Level Boston Center
10:04AM 42.0014 -73.5072 216° Southwest 303 349 14,000 -60 Level Boston Center
10:05AM 41.9406 -73.5647 215° Southwest 303 349 13,900 -600 Descending Boston Center
10:06AM 41.8669 -73.6333 215° Southwest 303 349 12,800 -1,020 Descending Boston Center
10:07AM 41.8100 -73.6878 215° Southwest 290 334 11,900 -960 Descending Boston Center
10:08AM 41.7406 -73.7533 215° Southwest 290 334 10,900 -1,020 Descending Boston Center
10:09AM 41.6856 -73.8050 215° Southwest 283 326 10,000 -780 Descending Boston Center
10:10AM 41.5500 -73.8167 184° South 294 338 9,000 -420 Descending New York TRACON
10:11AM 41.4667 -73.8000 171° South 303 349 9,000 -480 Level New York TRACON
10:12AM 41.3833 -73.8000 180° South 284 327 8,100 -540 Descending New York TRACON
10:13AM 41.3167 -73.7667 159° South 289 333 8,000 -720 Descending New York TRACON
10:14AM 41.2500 -73.7167 151° Southeast 277 319 6,800 -1,200 Descending New York TRACON
10:15AM 41.1833 -73.6500 143° Southeast 286 329 5,600 -1,200 Descending New York TRACON
10:16AM 41.1167 -73.6167 159° South 280 322 4,300 -840 Descending New York TRACON
10:17AM 41.0500 -73.6000 169° South 264 304 4,000 -180 Descending New York TRACON
10:18AM 40.9667 -73.6000 180° South 271 312 4,000  Level New York TRACON
10:19AM 40.9000 -73.6333 201° Southwest 263 303 4,000  Level New York TRACON
10:20AM 40.8333 -73.6667 201° Southwest 259 298 4,000  Level New York TRACON
10:21AM 40.7833 -73.7333 225° Southwest 242 278 4,000  Level New York TRACON
10:22AM 40.7833 -73.8000 270° West 232 267 4,000  Level New York TRACON
10:23AM 40.7667 -73.9000 258° West 236 272 4,000  Level New York TRACON
10:24AM 40.7500 -73.9667 252° West 242 278 4,000  Level New York TRACON
10:25AM 40.7167 -74.0333 237° Southwest 215 247 4,000  Level New York TRACON
10:26AM 40.6667 -74.0667 207° Southwest 186 214 4,000 -360 Level New York TRACON
10:27AM 40.6333 -74.1000 217° Southwest 195 224 3,300 -720 Descending New York TRACON